Time;durP1;ratioP1;P1;durP2;ratioP2;P2;SDS_P1;SDS_P2;PMS_P1;PMS_P2;Temp;Humidity;BMP_temperature;BMP_pressure;BME280_temperature;BME280_humidity;BME280_pressure;Samples;Min_cycle;Max_cycle;Signal;HPM_P1;HPM_P2
2022/01/18 00:00:27;;;;;;;;;;;0.90;99.90;;;;;;5050951;28;20294;-49
2022/01/18 00:02:54;;;;;;;;;;;0.90;99.90;;;;;;5050621;28;19929;-50
2022/01/18 00:05:22;;;;;;;;;;;0.80;99.90;;;;;;5051738;28;19929;-48
2022/01/18 00:07:49;;;;;;;;;;;0.80;99.90;;;;;;5051959;28;19932;-49
2022/01/18 00:10:16;;;;;;;;;;;0.80;99.90;;;;;;5051815;28;19925;-50
2022/01/18 00:12:56;;;;;;;;;;;0.80;99.90;;;;;;5051905;28;19951;-49
2022/01/18 00:15:36;;;;;;;;;;;0.80;99.90;;;;;;5051814;28;19929;-49
2022/01/18 00:18:12;;;;;;;;;;;0.80;99.90;;;;;;5051190;28;19925;-49
2022/01/18 00:20:53;;;;;;;;;;;0.90;99.90;;;;;;5052128;28;19925;-50
2022/01/18 00:23:20;;;;;;;;;;;1.10;99.90;;;;;;5051333;28;19932;-49
2022/01/18 00:25:51;;;;;;;;;;;1.20;99.90;;;;;;5051845;28;19932;-49
2022/01/18 00:28:17;;;;;;;;;;;1.20;99.90;;;;;;5051402;28;19924;-49
2022/01/18 00:33:38;;;;;;;;;;;1.10;99.90;;;;;;5051073;28;19929;-49
2022/01/18 00:36:09;;;;;;;;;;;1.10;99.90;;;;;;5051658;28;19971;-50
2022/01/18 00:38:45;;;;;;;;;;;1.10;99.90;;;;;;5051123;28;19964;-49
2022/01/18 00:41:12;;;;;;;;;;;1.10;99.90;;;;;;5044717;28;20023;-49
2022/01/18 00:43:39;;;;;;;;;;;1.10;99.90;;;;;;5051127;28;20024;-50
2022/01/18 00:46:06;;;;;;;;;;;1.10;99.90;;;;;;5051008;28;20280;-49
2022/01/18 00:48:35;;;;;;;;;;;1.20;99.90;;;;;;5050939;28;19925;-50
2022/01/18 00:51:03;;;;;;;;;;;1.30;99.90;;;;;;5050937;28;20306;-49
2022/01/18 00:53:32;;;;;;;;;;;1.30;99.90;;;;;;5050966;28;19986;-49
2022/01/18 00:56:11;;;;;;;;;;;1.30;99.90;;;;;;5051770;28;19925;-50
2022/01/18 00:58:38;;;;;;;;;;;1.30;99.90;;;;;;5050782;28;19939;-49
2022/01/18 01:01:05;;;;;;;;;;;1.30;99.90;;;;;;5051280;28;19925;-50
2022/01/18 01:03:32;;;;;;;;;;;1.20;99.90;;;;;;5051303;28;19924;-49
2022/01/18 01:05:59;;;;;;;;;;;1.20;99.90;;;;;;5051235;28;19925;-49
2022/01/18 01:08:26;;;;;;;;;;;1.20;99.90;;;;;;5050887;28;19933;-50
2022/01/18 01:10:54;;;;;;;;;;;1.20;99.90;;;;;;5051503;28;19936;-49
2022/01/18 01:13:21;;;;;;;;;;;1.20;99.90;;;;;;5050629;28;19925;-50
2022/01/18 01:16:03;;;;;;;;;;;1.10;99.90;;;;;;5051316;28;19925;-50
2022/01/18 01:18:41;;;;;;;;;;;1.20;99.90;;;;;;5050779;28;20371;-50
2022/01/18 01:32:51;;;;;;;;;;;1.30;99.90;;;;;;5050861;28;19974;-49
2022/01/18 01:35:11;;;;;;;;;;;1.10;99.90;;;;;;5050890;28;19924;-50
2022/01/18 01:43:18;;;;;;;;;;;1.00;99.90;;;;;;5050884;28;19932;-50
2022/01/18 01:45:44;;;;;;;;;;;1.00;99.90;;;;;;5051086;28;19925;-50
2022/01/18 01:48:11;;;;;;;;;;;1.10;99.90;;;;;;5050457;28;19947;-49
2022/01/18 01:50:47;;;;;;;;;;;1.20;99.90;;;;;;5050983;28;19932;-50
2022/01/18 01:53:14;;;;;;;;;;;1.30;99.90;;;;;;5050910;28;20015;-48
2022/01/18 01:55:41;;;;;;;;;;;1.20;99.90;;;;;;5050720;28;19929;-50
2022/01/18 01:58:09;;;;;;;;;;;1.20;99.90;;;;;;5050663;28;20371;-48
2022/01/18 02:00:43;;;;;;;;;;;1.30;99.90;;;;;;5050952;28;19970;-49
2022/01/18 02:03:09;;;;;;;;;;;1.20;99.90;;;;;;5050857;28;19986;-49
2022/01/18 02:05:36;;;;;;;;;;;1.20;99.90;;;;;;5050679;28;19925;-50
2022/01/18 02:08:07;;;;;;;;;;;1.30;99.90;;;;;;5051775;28;19925;-50
2022/01/18 02:10:34;;;;;;;;;;;1.30;99.90;;;;;;5054191;28;19936;-49
2022/01/18 02:13:00;;;;;;;;;;;1.30;99.90;;;;;;5054206;28;19929;-50
2022/01/18 02:15:29;;;;;;;;;;;1.30;99.90;;;;;;5054585;28;19947;-50
2022/01/18 02:23:26;;;;;;;;;;;1.20;99.90;;;;;;5053676;28;20389;-48
2022/01/18 02:25:53;;;;;;;;;;;1.20;99.90;;;;;;5053903;28;20002;-50
2022/01/18 02:28:21;;;;;;;;;;;1.20;99.90;;;;;;5054008;28;19970;-49
2022/01/18 02:30:48;;;;;;;;;;;1.30;99.90;;;;;;5054038;28;19968;-49
2022/01/18 02:33:15;;;;;;;;;;;1.30;99.90;;;;;;5054154;28;19932;-50
2022/01/18 02:35:45;;;;;;;;;;;1.30;99.90;;;;;;5053923;28;19936;-50
2022/01/18 02:38:12;;;;;;;;;;;1.20;99.90;;;;;;5053150;28;19979;-49
2022/01/18 02:40:38;;;;;;;;;;;1.20;99.90;;;;;;5053538;28;20001;-50
2022/01/18 02:45:48;;;;;;;;;;;1.30;99.90;;;;;;5069630;28;20041;-51
2022/01/18 02:48:14;;;;;;;;;;;1.20;99.90;;;;;;5074625;28;19928;-52
2022/01/18 02:50:43;;;;;;;;;;;1.30;99.90;;;;;;5074729;28;19986;-49
2022/01/18 02:53:09;;;;;;;;;;;1.00;99.90;;;;;;5074089;28;19970;-50
2022/01/18 02:55:36;;;;;;;;;;;0.90;99.90;;;;;;5074625;28;20630;-50
2022/01/18 02:58:09;;;;;;;;;;;0.90;99.90;;;;;;5074005;28;19924;-51
2022/01/18 03:00:44;;;;;;;;;;;0.80;99.90;;;;;;5074536;28;20405;-50
2022/01/18 03:03:11;;;;;;;;;;;0.70;99.90;;;;;;5074160;28;19971;-50
2022/01/18 03:05:38;;;;;;;;;;;0.80;99.90;;;;;;5074096;28;19920;-51
2022/01/18 03:08:06;;;;;;;;;;;0.90;99.90;;;;;;5074098;28;19932;-51
2022/01/18 03:10:33;;;;;;;;;;;0.90;99.90;;;;;;5074267;28;19924;-51
2022/01/18 03:13:03;;;;;;;;;;;0.70;99.90;;;;;;5073401;28;19924;-52
2022/01/18 03:15:30;;;;;;;;;;;0.60;99.90;;;;;;5073808;28;20456;-51
2022/01/18 03:17:56;;;;;;;;;;;0.60;99.90;;;;;;5074043;28;19928;-52
2022/01/18 03:20:23;;;;;;;;;;;0.70;99.90;;;;;;5073194;28;19925;-51
2022/01/18 03:22:51;;;;;;;;;;;0.60;99.90;;;;;;5074232;28;20007;-51
2022/01/18 03:25:28;;;;;;;;;;;0.60;99.90;;;;;;5073653;28;19928;-52
2022/01/18 03:28:05;;;;;;;;;;;0.40;99.90;;;;;;5072299;28;20001;-51
2022/01/18 03:30:32;;;;;;;;;;;0.40;99.90;;;;;;5073997;28;19935;-52
2022/01/18 03:33:03;;;;;;;;;;;0.40;99.90;;;;;;5073034;28;19939;-51
2022/01/18 03:35:30;;;;;;;;;;;0.30;99.90;;;;;;5073521;28;19969;-51
2022/01/18 03:37:57;;;;;;;;;;;0.30;99.90;;;;;;5073108;28;20382;-52
2022/01/18 03:40:25;;;;;;;;;;;0.40;99.90;;;;;;5073564;28;19928;-52
2022/01/18 03:42:54;;;;;;;;;;;0.50;99.90;;;;;;5073546;28;19924;-50
2022/01/18 03:45:23;;;;;;;;;;;0.50;99.90;;;;;;5073774;28;20024;-51
2022/01/18 03:47:50;;;;;;;;;;;0.50;99.90;;;;;;5072998;28;19964;-52
2022/01/18 03:50:17;;;;;;;;;;;0.50;99.90;;;;;;5073486;28;19931;-51
2022/01/18 03:52:45;;;;;;;;;;;0.60;99.90;;;;;;5073598;28;19977;-51
2022/01/18 03:55:12;;;;;;;;;;;0.60;99.90;;;;;;5073484;28;19924;-51
2022/01/18 03:57:41;;;;;;;;;;;0.40;99.90;;;;;;5073034;28;19925;-51
2022/01/18 04:00:09;;;;;;;;;;;0.30;99.90;;;;;;5073027;28;19962;-51
2022/01/18 04:02:35;;;;;;;;;;;0.20;99.90;;;;;;5073126;28;19928;-52
2022/01/18 04:05:03;;;;;;;;;;;0.00;99.90;;;;;;5073064;28;19932;-51
2022/01/18 04:07:29;;;;;;;;;;;0.00;99.90;;;;;;5073057;28;19924;-52
2022/01/18 04:09:56;;;;;;;;;;;0.00;99.90;;;;;;5072974;28;19928;-51
2022/01/18 04:12:23;;;;;;;;;;;-0.10;99.90;;;;;;5072912;28;19925;-51
2022/01/18 04:14:51;;;;;;;;;;;-0.20;99.90;;;;;;5073070;28;20451;-51
2022/01/18 04:17:32;;;;;;;;;;;-0.20;99.90;;;;;;5072601;28;19994;-51
2022/01/18 04:28:18;;;;;;;;;;;-0.50;99.90;;;;;;5071748;28;20336;-52
2022/01/18 04:30:46;;;;;;;;;;;-0.60;99.90;;;;;;5071871;28;19978;-51
2022/01/18 04:33:13;;;;;;;;;;;-0.60;99.90;;;;;;5072284;28;19932;-51
2022/01/18 04:35:40;;;;;;;;;;;-0.70;99.90;;;;;;5072893;28;19970;-51
2022/01/18 04:38:06;;;;;;;;;;;-0.70;99.90;;;;;;5060496;28;19928;-51
2022/01/18 04:40:34;;;;;;;;;;;-0.80;99.90;;;;;;5064622;28;19928;-51
2022/01/18 04:43:11;;;;;;;;;;;-0.70;99.90;;;;;;5072595;28;19924;-51
2022/01/18 04:48:31;;;;;;;;;;;-0.70;99.90;;;;;;5072663;28;20356;-51
2022/01/18 04:51:00;;;;;;;;;;;-0.70;99.90;;;;;;5055057;28;19932;-50
2022/01/18 04:53:29;;;;;;;;;;;-0.70;99.90;;;;;;5069847;28;19954;-51
2022/01/18 04:55:57;;;;;;;;;;;-0.80;99.90;;;;;;5072251;28;20014;-51
2022/01/18 04:58:24;;;;;;;;;;;-0.80;99.90;;;;;;5072474;28;19929;-50
2022/01/18 05:00:51;;;;;;;;;;;-0.80;99.90;;;;;;5072922;28;19920;-50
2022/01/18 05:03:18;;;;;;;;;;;-0.80;99.90;;;;;;5072476;28;19978;-50
2022/01/18 05:05:48;;;;;;;;;;;-0.60;99.90;;;;;;5072037;28;19924;-50
2022/01/18 05:08:15;;;;;;;;;;;-0.60;99.90;;;;;;5069197;28;19928;-51
2022/01/18 05:10:43;;;;;;;;;;;-0.60;99.90;;;;;;5072050;28;20459;-51
2022/01/18 05:13:33;;;;;;;;;;;-0.50;99.90;;;;;;5064841;28;19925;-50
2022/01/18 05:16:14;;;;;;;;;;;-0.40;99.90;;;;;;5052327;28;20306;-51
2022/01/18 05:21:29;;;;;;;;;;;-0.70;99.90;;;;;;5064504;28;19935;-51
2022/01/18 05:23:56;;;;;;;;;;;-0.80;99.90;;;;;;5072201;28;20171;-51
2022/01/18 05:26:23;;;;;;;;;;;-0.80;99.90;;;;;;5072026;28;19975;-51
2022/01/18 05:28:50;;;;;;;;;;;-0.60;99.90;;;;;;5072160;28;19970;-52
2022/01/18 05:31:17;;;;;;;;;;;-0.60;99.90;;;;;;5073679;28;20291;-51
2022/01/18 05:33:46;;;;;;;;;;;-0.70;99.90;;;;;;5072597;28;19924;-51
2022/01/18 05:36:13;;;;;;;;;;;-0.70;99.90;;;;;;5069176;28;19925;-50
2022/01/18 05:38:41;;;;;;;;;;;-0.60;99.90;;;;;;5063680;28;20410;-50
2022/01/18 05:41:09;;;;;;;;;;;-0.60;99.90;;;;;;5071794;28;19925;-50
2022/01/18 05:43:36;;;;;;;;;;;-0.50;99.90;;;;;;5074544;28;19977;-50
2022/01/18 05:46:04;;;;;;;;;;;-0.50;99.90;;;;;;5075652;28;19932;-50
2022/01/18 05:48:31;;;;;;;;;;;-0.50;99.90;;;;;;5075603;28;19928;-50
2022/01/18 05:50:59;;;;;;;;;;;-0.50;99.90;;;;;;5075557;28;20438;-50
2022/01/18 05:53:26;;;;;;;;;;;-0.50;99.90;;;;;;5072413;28;19928;-50
2022/01/18 05:55:55;;;;;;;;;;;-0.50;99.90;;;;;;5075151;28;19924;-50
2022/01/18 05:58:21;;;;;;;;;;;-0.50;99.90;;;;;;5075324;28;19924;-50
2022/01/18 06:00:52;;;;;;;;;;;-0.50;99.90;;;;;;5071511;28;19974;-50
2022/01/18 06:03:27;;;;;;;;;;;-0.40;99.90;;;;;;5073454;28;20001;-50
2022/01/18 06:08:41;;;;;;;;;;;-0.30;99.90;;;;;;5057187;28;19925;-50
2022/01/18 06:11:09;;;;;;;;;;;-0.50;99.90;;;;;;5072076;28;19924;-50
2022/01/18 06:13:36;;;;;;;;;;;-0.60;99.90;;;;;;5074159;28;20516;-50
2022/01/18 06:16:04;;;;;;;;;;;-0.60;99.90;;;;;;5074584;28;19928;-50
2022/01/18 06:18:31;;;;;;;;;;;-0.60;99.90;;;;;;5074400;28;19954;-50
2022/01/18 06:20:58;;;;;;;;;;;-0.60;99.90;;;;;;5074366;28;19932;-50
2022/01/18 06:23:25;;;;;;;;;;;-0.60;99.90;;;;;;5073854;28;19930;-51
2022/01/18 06:25:54;;;;;;;;;;;-0.70;99.90;;;;;;5070977;28;19933;-51
2022/01/18 06:28:23;;;;;;;;;;;-0.70;99.90;;;;;;5072472;28;20529;-50
2022/01/18 06:30:53;;;;;;;;;;;-0.80;99.90;;;;;;5074681;28;19960;-50
2022/01/18 06:33:20;;;;;;;;;;;-0.90;99.90;;;;;;5060746;28;20011;-50
2022/01/18 06:35:47;;;;;;;;;;;-0.80;99.90;;;;;;5072384;28;20018;-50
2022/01/18 06:38:14;;;;;;;;;;;-0.70;99.90;;;;;;5075054;28;20374;-50
2022/01/18 06:40:42;;;;;;;;;;;-0.70;99.90;;;;;;5075094;28;19978;-51
2022/01/18 06:43:09;;;;;;;;;;;-0.70;99.90;;;;;;5073530;28;19925;-50
2022/01/18 06:45:37;;;;;;;;;;;-0.70;99.90;;;;;;5073872;28;19931;-50
2022/01/18 06:48:05;;;;;;;;;;;-0.90;99.90;;;;;;5074270;28;20185;-50
2022/01/18 06:50:32;;;;;;;;;;;-0.90;99.90;;;;;;5073004;28;19924;-50
2022/01/18 06:53:00;;;;;;;;;;;-0.90;99.90;;;;;;5070848;28;20425;-51
2022/01/18 06:55:28;;;;;;;;;;;-1.00;99.90;;;;;;5073170;28;20397;-50
2022/01/18 06:57:56;;;;;;;;;;;-0.90;99.90;;;;;;5069113;28;21724;-50
2022/01/18 07:00:23;;;;;;;;;;;-0.90;99.90;;;;;;5072293;28;19925;-50
2022/01/18 07:02:51;;;;;;;;;;;-0.90;99.90;;;;;;5074559;28;20382;-49
2022/01/18 07:05:18;;;;;;;;;;;-0.90;99.90;;;;;;5073609;28;19989;-50
2022/01/18 07:07:47;;;;;;;;;;;-0.80;99.90;;;;;;5072651;28;19924;-49
2022/01/18 07:10:14;;;;;;;;;;;-0.80;99.90;;;;;;5064040;28;20027;-50
2022/01/18 07:12:41;;;;;;;;;;;-0.70;99.90;;;;;;5072531;28;19925;-50
2022/01/18 07:15:09;;;;;;;;;;;-0.80;99.90;;;;;;5061233;28;19925;-50
2022/01/18 07:17:36;;;;;;;;;;;-0.80;99.90;;;;;;5072983;28;19924;-50
2022/01/18 07:20:06;;;;;;;;;;;-0.70;99.90;;;;;;5070369;28;19938;-50
2022/01/18 07:22:34;;;;;;;;;;;-0.70;99.90;;;;;;5068273;28;19931;-52
2022/01/18 07:25:02;;;;;;;;;;;-0.70;99.90;;;;;;5073174;28;19978;-50
2022/01/18 07:27:29;;;;;;;;;;;-0.70;99.90;;;;;;5073444;28;19928;-51
2022/01/18 07:29:55;;;;;;;;;;;-0.70;99.90;;;;;;5071405;28;19924;-50
2022/01/18 07:32:22;;;;;;;;;;;-0.60;99.90;;;;;;5068229;28;19979;-50
2022/01/18 07:34:52;;;;;;;;;;;-0.70;99.90;;;;;;5075452;28;19924;-50
2022/01/18 07:37:21;;;;;;;;;;;-0.80;99.90;;;;;;5078906;28;19924;-50
2022/01/18 07:39:53;;;;;;;;;;;-0.80;99.90;;;;;;5088529;28;20183;-51
2022/01/18 07:42:20;;;;;;;;;;;-0.80;99.90;;;;;;5089311;28;19931;-50
2022/01/18 07:44:48;;;;;;;;;;;-0.90;99.90;;;;;;5083238;28;20306;-51
2022/01/18 07:47:14;;;;;;;;;;;-0.90;99.90;;;;;;5069884;28;19925;-50
2022/01/18 07:49:41;;;;;;;;;;;-0.70;99.90;;;;;;5068821;28;19933;-50
2022/01/18 07:52:08;;;;;;;;;;;-0.50;99.90;;;;;;5071870;28;20014;-50
2022/01/18 07:54:37;;;;;;;;;;;-0.50;99.90;;;;;;5071788;28;19924;-51
2022/01/18 07:57:04;;;;;;;;;;;-0.50;99.90;;;;;;5074006;28;19925;-50
2022/01/18 07:59:30;;;;;;;;;;;-0.20;99.90;;;;;;5068820;28;19928;-50
2022/01/18 08:01:57;;;;;;;;;;;0.00;99.90;;;;;;5064320;28;19936;-50
2022/01/18 08:04:24;;;;;;;;;;;0.10;99.90;;;;;;5063274;28;19932;-51
2022/01/18 08:06:51;;;;;;;;;;;0.20;99.90;;;;;;5071983;28;19928;-50
2022/01/18 08:09:19;;;;;;;;;;;0.40;99.90;;;;;;5072794;28;19986;-50
2022/01/18 08:11:48;;;;;;;;;;;0.40;99.90;;;;;;5073317;28;19925;-51
2022/01/18 08:14:17;;;;;;;;;;;0.50;99.90;;;;;;5073046;28;19924;-51
2022/01/18 08:17:00;;;;;;;;;;;0.40;99.90;;;;;;5073191;28;19982;-51
2022/01/18 08:19:27;;;;;;;;;;;0.40;99.90;;;;;;5072349;28;20682;-51
2022/01/18 08:21:54;;;;;;;;;;;0.50;99.90;;;;;;5073354;28;19925;-50
2022/01/18 08:24:20;;;;;;;;;;;0.60;99.90;;;;;;5072976;28;20302;-50
2022/01/18 08:26:49;;;;;;;;;;;0.80;99.90;;;;;;5073130;28;19956;-50
2022/01/18 08:29:15;;;;;;;;;;;1.00;99.90;;;;;;5072786;28;20583;-51
2022/01/18 08:31:43;;;;;;;;;;;1.10;99.90;;;;;;5072491;28;19925;-51
2022/01/18 08:34:10;;;;;;;;;;;1.30;99.90;;;;;;5072789;28;19931;-51
2022/01/18 08:36:37;;;;;;;;;;;1.70;99.90;;;;;;5072762;28;20405;-51
2022/01/18 08:39:04;;;;;;;;;;;2.30;99.90;;;;;;5072623;28;19925;-52
2022/01/18 08:41:31;;;;;;;;;;;3.00;99.90;;;;;;5072395;28;19924;-52
2022/01/18 08:43:59;;;;;;;;;;;3.80;99.90;;;;;;5093341;22;19924;-49
2022/01/18 08:46:26;;;;;;;;;;;4.40;99.90;;;;;;5055202;28;19933;-49
2022/01/18 08:48:52;;;;;;;;;;;4.80;99.90;;;;;;5070799;28;19955;-50
2022/01/18 08:51:19;;;;;;;;;;;5.50;99.90;;;;;;5071220;28;19929;-50
2022/01/18 08:53:48;;;;;;;;;;;6.90;99.90;;;;;;5070855;28;20007;-52
2022/01/18 08:56:15;;;;;;;;;;;8.30;99.90;;;;;;5071542;28;19940;-51
2022/01/18 08:58:42;;;;;;;;;;;9.70;99.90;;;;;;5071415;28;19929;-52
2022/01/18 09:01:10;;;;;;;;;;;10.90;99.90;;;;;;5071590;28;19924;-51
2022/01/18 09:03:37;;;;;;;;;;;11.30;99.90;;;;;;5054783;28;19931;-51
2022/01/18 09:06:05;;;;;;;;;;;11.80;99.90;;;;;;5051225;28;20352;-51
2022/01/18 09:08:33;;;;;;;;;;;12.40;99.90;;;;;;5050891;28;19925;-51
2022/01/18 09:11:00;;;;;;;;;;;12.60;99.90;;;;;;5055604;28;20301;-52
2022/01/18 09:13:28;;;;;;;;;;;12.40;99.90;;;;;;5061460;28;20693;-51
2022/01/18 09:15:55;;;;;;;;;;;12.80;99.90;;;;;;5070881;28;19947;-51
2022/01/18 09:18:23;;;;;;;;;;;13.00;99.90;;;;;;5073566;28;19924;-51
2022/01/18 09:20:50;;;;;;;;;;;12.80;99.90;;;;;;5070851;28;19928;-50
2022/01/18 09:23:17;;;;;;;;;;;12.70;99.90;;;;;;5072835;28;19943;-49
2022/01/18 09:25:44;;;;;;;;;;;13.20;99.90;;;;;;5075278;28;19970;-50
2022/01/18 09:28:11;;;;;;;;;;;14.30;99.90;;;;;;5073615;28;20283;-49
2022/01/18 09:30:38;;;;;;;;;;;14.60;99.90;;;;;;5068291;28;20358;-50
2022/01/18 09:33:06;;;;;;;;;;;14.50;99.90;;;;;;5075152;28;20289;-49
2022/01/18 09:35:35;;;;;;;;;;;14.70;99.90;;;;;;5074982;28;19928;-52
2022/01/18 09:38:03;;;;;;;;;;;15.20;99.90;;;;;;5074776;28;19932;-51
2022/01/18 09:40:30;;;;;;;;;;;15.80;98.70;;;;;;5070205;28;19950;-50
2022/01/18 09:43:00;;;;;;;;;;;15.10;98.20;;;;;;5065481;28;20409;-49
2022/01/18 09:45:28;;;;;;;;;;;13.80;99.90;;;;;;5066703;28;19933;-49
2022/01/18 09:47:56;;;;;;;;;;;13.50;99.90;;;;;;5070405;28;19931;-53
2022/01/18 09:50:27;;;;;;;;;;;13.00;99.90;;;;;;5063561;28;19932;-50
2022/01/18 09:52:56;;;;;;;;;;;12.40;99.90;;;;;;5075166;28;19978;-50
2022/01/18 09:55:24;;;;;;;;;;;12.10;99.90;;;;;;5075002;28;19928;-50
2022/01/18 09:57:51;;;;;;;;;;;10.90;99.90;;;;;;5074683;28;19925;-49
2022/01/18 10:00:18;;;;;;;;;;;10.30;99.90;;;;;;5074863;28;19924;-49
2022/01/18 10:02:46;;;;;;;;;;;9.90;99.90;;;;;;5074777;28;20336;-50
2022/01/18 10:05:20;;;;;;;;;;;9.70;99.90;;;;;;5074966;28;19936;-49
2022/01/18 10:07:54;;;;;;;;;;;9.10;99.90;;;;;;5067180;28;19944;-49
2022/01/18 10:10:34;;;;;;;;;;;9.10;99.90;;;;;;5074856;28;20271;-50
2022/01/18 10:13:01;;;;;;;;;;;8.90;99.90;;;;;;5074896;28;20386;-48
2022/01/18 10:15:27;;;;;;;;;;;8.70;99.90;;;;;;5074614;28;20397;-50
2022/01/18 10:18:03;;;;;;;;;;;9.20;99.90;;;;;;5074580;28;19932;-50
2022/01/18 10:20:29;;;;;;;;;;;9.80;99.90;;;;;;5074622;28;19933;-49
2022/01/18 10:22:56;;;;;;;;;;;10.90;99.90;;;;;;5074464;28;19978;-50
2022/01/18 10:25:25;;;;;;;;;;;11.80;99.90;;;;;;5074244;28;20401;-50
2022/01/18 10:27:53;;;;;;;;;;;12.80;99.90;;;;;;5073681;28;19939;-49
2022/01/18 10:30:25;;;;;;;;;;;13.70;99.90;;;;;;5074068;28;19925;-48
2022/01/18 10:33:01;;;;;;;;;;;14.80;99.70;;;;;;5074927;28;19951;-50
2022/01/18 10:35:28;;;;;;;;;;;15.70;99.70;;;;;;5074168;28;19985;-49
2022/01/18 10:37:55;;;;;;;;;;;16.30;96.30;;;;;;5073933;28;19929;-49
2022/01/18 10:40:26;;;;;;;;;;;16.80;96.30;;;;;;5074102;28;19924;-50
2022/01/18 10:42:56;;;;;;;;;;;17.40;95.10;;;;;;5066033;28;20374;-49
2022/01/18 10:45:28;;;;;;;;;;;17.00;94.50;;;;;;5070664;28;20725;-51
2022/01/18 10:47:58;;;;;;;;;;;17.30;94.20;;;;;;5065550;28;19924;-50
2022/01/18 10:50:25;;;;;;;;;;;17.20;93.20;;;;;;5064079;28;19925;-49
2022/01/18 10:52:53;;;;;;;;;;;15.70;94.10;;;;;;5071558;28;19932;-50
2022/01/18 10:55:21;;;;;;;;;;;14.00;96.20;;;;;;5072479;28;20505;-49
2022/01/18 10:57:48;;;;;;;;;;;12.50;98.20;;;;;;5072081;28;19982;-49
2022/01/18 11:00:17;;;;;;;;;;;10.70;99.90;;;;;;5074111;28;19924;-49
2022/01/18 11:02:45;;;;;;;;;;;10.20;99.90;;;;;;5073680;28;20015;-49
2022/01/18 11:05:13;;;;;;;;;;;9.10;99.90;;;;;;5073520;28;19924;-48
2022/01/18 11:07:40;;;;;;;;;;;8.50;99.90;;;;;;5073389;28;19924;-49
2022/01/18 11:10:08;;;;;;;;;;;8.00;99.90;;;;;;5075772;28;19970;-48
2022/01/18 11:12:46;;;;;;;;;;;8.10;99.90;;;;;;5070716;28;19954;-48
2022/01/18 11:15:17;;;;;;;;;;;8.00;99.90;;;;;;5060050;28;19940;-49
2022/01/18 11:17:50;;;;;;;;;;;7.70;99.90;;;;;;5071850;28;19974;-49
2022/01/18 11:20:18;;;;;;;;;;;7.60;99.90;;;;;;5072892;28;19924;-48
2022/01/18 11:22:45;;;;;;;;;;;7.70;99.90;;;;;;5072449;28;19928;-49
2022/01/18 11:25:12;;;;;;;;;;;7.70;99.90;;;;;;5071115;28;19928;-49
2022/01/18 11:27:42;;;;;;;;;;;7.90;99.90;;;;;;5062544;28;20341;-48
2022/01/18 11:30:10;;;;;;;;;;;7.90;99.90;;;;;;5054379;28;20394;-49
2022/01/18 11:32:37;;;;;;;;;;;7.20;99.90;;;;;;5067396;28;19948;-49
2022/01/18 11:35:09;;;;;;;;;;;7.50;99.90;;;;;;5068022;28;19928;-49
2022/01/18 11:37:42;;;;;;;;;;;7.30;99.90;;;;;;5071198;28;19925;-49
2022/01/18 11:40:28;;;;;;;;;;;7.20;99.90;;;;;;5057138;28;20003;-49
2022/01/18 11:42:56;;;;;;;;;;;7.30;99.90;;;;;;5072670;28;19924;-50
2022/01/18 11:45:30;;;;;;;;;;;7.30;99.90;;;;;;5072099;28;19924;-49
2022/01/18 11:48:01;;;;;;;;;;;7.30;99.90;;;;;;5070044;28;20394;-49
2022/01/18 11:50:30;;;;;;;;;;;7.50;99.90;;;;;;5070256;28;19924;-49
2022/01/18 11:53:15;;;;;;;;;;;7.40;99.90;;;;;;5072325;28;19931;-48
2022/01/18 11:55:44;;;;;;;;;;;7.50;99.90;;;;;;5069662;28;19924;-49
2022/01/18 11:58:12;;;;;;;;;;;7.60;99.90;;;;;;5057562;28;20402;-49
2022/01/18 12:00:48;;;;;;;;;;;7.80;99.90;;;;;;5056368;28;20437;-50
2022/01/18 12:03:18;;;;;;;;;;;7.80;99.90;;;;;;5071957;28;20069;-49
2022/01/18 12:05:47;;;;;;;;;;;7.50;99.90;;;;;;5070539;28;19928;-49
2022/01/18 12:08:29;;;;;;;;;;;7.20;99.90;;;;;;5071165;28;20352;-48
2022/01/18 12:10:56;;;;;;;;;;;7.30;99.90;;;;;;5071265;28;20002;-50
2022/01/18 12:13:34;;;;;;;;;;;7.40;99.90;;;;;;5071625;28;19978;-49
2022/01/18 12:16:02;;;;;;;;;;;7.40;99.90;;;;;;5071258;28;19924;-50
2022/01/18 12:18:30;;;;;;;;;;;7.50;99.90;;;;;;5071829;28;19924;-48
2022/01/18 12:20:59;;;;;;;;;;;7.40;99.90;;;;;;5071792;28;19978;-49
2022/01/18 12:23:26;;;;;;;;;;;7.40;99.90;;;;;;5071684;28;19928;-50
2022/01/18 12:25:58;;;;;;;;;;;7.60;99.90;;;;;;5071050;28;19974;-49
2022/01/18 12:28:47;;;;;;;;;;;7.60;99.90;;;;;;5071440;28;20421;-50
2022/01/18 12:31:34;;;;;;;;;;;7.40;99.90;;;;;;5071668;28;19972;-49
2022/01/18 12:34:01;;;;;;;;;;;7.20;99.90;;;;;;5061323;28;19936;-49
2022/01/18 12:36:32;;;;;;;;;;;7.30;99.90;;;;;;5070835;28;19933;-50
2022/01/18 12:38:59;;;;;;;;;;;7.50;99.90;;;;;;5068965;28;19932;-49
2022/01/18 12:41:39;;;;;;;;;;;7.50;99.90;;;;;;5069716;28;19928;-49
2022/01/18 12:44:20;;;;;;;;;;;7.40;99.90;;;;;;5065002;28;20344;-49
2022/01/18 12:46:50;;;;;;;;;;;7.40;99.90;;;;;;5070473;28;20012;-49
2022/01/18 12:49:17;;;;;;;;;;;7.50;99.90;;;;;;5061682;28;19936;-49
2022/01/18 12:51:45;;;;;;;;;;;7.40;99.90;;;;;;5060618;28;19928;-50
2022/01/18 12:54:12;;;;;;;;;;;7.30;99.90;;;;;;5064975;28;20383;-49
2022/01/18 12:56:39;;;;;;;;;;;7.30;99.90;;;;;;5059570;28;20451;-49
2022/01/18 12:59:09;;;;;;;;;;;7.10;99.90;;;;;;5070698;28;19986;-49
2022/01/18 13:01:37;;;;;;;;;;;6.90;99.90;;;;;;5071468;28;19947;-48
2022/01/18 13:04:07;;;;;;;;;;;7.00;99.90;;;;;;5068794;28;19932;-49
2022/01/18 13:06:36;;;;;;;;;;;6.90;99.90;;;;;;5071861;28;19973;-49
2022/01/18 13:09:05;;;;;;;;;;;6.90;99.90;;;;;;5070652;28;19924;-50
2022/01/18 13:11:32;;;;;;;;;;;6.80;99.90;;;;;;5071229;28;19940;-49
2022/01/18 13:14:07;;;;;;;;;;;6.90;99.90;;;;;;5070820;28;20302;-49
2022/01/18 13:27:35;;;;;;;;;;;6.70;99.90;;;;;;5051672;28;19924;-51
2022/01/18 13:30:10;;;;;;;;;;;6.70;99.90;;;;;;5067224;28;20008;-51
2022/01/18 13:32:38;;;;;;;;;;;6.70;99.90;;;;;;5070427;28;20374;-51
2022/01/18 13:35:05;;;;;;;;;;;6.50;99.90;;;;;;5071435;28;20263;-51
2022/01/18 13:37:34;;;;;;;;;;;6.60;99.90;;;;;;5071138;28;19974;-51
2022/01/18 13:40:03;;;;;;;;;;;6.60;99.90;;;;;;5070684;28;20069;-52
2022/01/18 13:42:34;;;;;;;;;;;6.60;99.90;;;;;;5071179;28;20451;-53
2022/01/18 13:45:13;;;;;;;;;;;6.60;99.90;;;;;;5071255;28;20416;-49
2022/01/18 13:47:41;;;;;;;;;;;6.70;99.90;;;;;;5070909;28;20367;-49
2022/01/18 13:50:08;;;;;;;;;;;6.60;99.90;;;;;;5070773;28;19929;-49
2022/01/18 13:52:35;;;;;;;;;;;6.60;99.90;;;;;;5071347;28;19944;-49
2022/01/18 13:55:03;;;;;;;;;;;6.40;99.90;;;;;;5070948;28;20015;-49
2022/01/18 13:57:30;;;;;;;;;;;6.40;99.90;;;;;;5071088;28;19978;-50
2022/01/18 13:59:57;;;;;;;;;;;6.30;99.90;;;;;;5070626;28;20403;-49
2022/01/18 14:02:25;;;;;;;;;;;6.40;99.90;;;;;;5070568;28;19947;-50
2022/01/18 14:05:07;;;;;;;;;;;6.30;99.90;;;;;;5074035;28;19925;-49
2022/01/18 14:07:34;;;;;;;;;;;6.30;99.90;;;;;;5075164;28;19934;-49
2022/01/18 14:10:04;;;;;;;;;;;6.20;99.90;;;;;;5074278;28;19977;-49
2022/01/18 14:12:31;;;;;;;;;;;6.20;99.90;;;;;;5074689;28;19924;-50
2022/01/18 14:14:58;;;;;;;;;;;6.20;99.90;;;;;;5074688;28;20336;-50
2022/01/18 14:17:25;;;;;;;;;;;6.10;99.90;;;;;;5074843;28;19928;-50
2022/01/18 14:20:01;;;;;;;;;;;6.10;99.90;;;;;;5064452;28;19986;-50
2022/01/18 14:22:27;;;;;;;;;;;6.10;99.90;;;;;;5054784;28;19950;-50
2022/01/18 14:24:57;;;;;;;;;;;6.10;99.90;;;;;;5054566;28;19928;-50
2022/01/18 14:27:26;;;;;;;;;;;6.10;99.90;;;;;;5054489;28;19929;-50
2022/01/18 14:29:54;;;;;;;;;;;6.10;99.90;;;;;;5066166;28;19931;-50
2022/01/18 14:32:27;;;;;;;;;;;6.00;99.90;;;;;;5074367;28;20297;-50
2022/01/18 14:34:56;;;;;;;;;;;6.10;99.90;;;;;;5074341;28;20326;-49
2022/01/18 14:37:34;;;;;;;;;;;5.90;99.90;;;;;;5074532;28;19985;-50
2022/01/18 14:40:02;;;;;;;;;;;5.90;99.90;;;;;;5073976;28;19925;-49
2022/01/18 14:42:34;;;;;;;;;;;6.00;99.90;;;;;;5074094;28;20045;-49
2022/01/18 14:45:08;;;;;;;;;;;5.90;99.90;;;;;;5074127;28;20347;-50
2022/01/18 14:47:33;;;;;;;;;;;5.90;99.90;;;;;;5077927;22;19924;-50
2022/01/18 14:50:01;;;;;;;;;;;5.90;99.90;;;;;;5053846;28;20349;-50
2022/01/18 14:52:29;;;;;;;;;;;5.90;99.90;;;;;;5049873;28;19925;-50
2022/01/18 14:54:55;;;;;;;;;;;5.70;99.90;;;;;;5054317;28;19929;-51
2022/01/18 14:57:23;;;;;;;;;;;5.60;99.90;;;;;;5054355;28;19978;-51
2022/01/18 14:59:52;;;;;;;;;;;5.60;99.90;;;;;;5053385;28;19974;-51
2022/01/18 15:02:19;;;;;;;;;;;5.60;99.90;;;;;;5054738;28;19932;-51
2022/01/18 15:04:45;;;;;;;;;;;5.60;99.90;;;;;;5054476;28;19979;-51
2022/01/18 15:07:13;;;;;;;;;;;5.60;99.90;;;;;;5054373;28;20429;-51
2022/01/18 15:09:39;;;;;;;;;;;5.50;99.90;;;;;;5049736;28;19975;-51
2022/01/18 15:12:07;;;;;;;;;;;5.50;99.90;;;;;;5038961;28;20002;-51
2022/01/18 15:14:34;;;;;;;;;;;5.40;99.90;;;;;;5054194;28;19951;-51
2022/01/18 15:17:02;;;;;;;;;;;5.30;99.90;;;;;;5053964;28;20369;-52
2022/01/18 15:19:29;;;;;;;;;;;5.30;99.90;;;;;;5053615;28;19929;-52
2022/01/18 15:21:55;;;;;;;;;;;5.30;99.90;;;;;;5054367;28;19947;-52
2022/01/18 15:24:22;;;;;;;;;;;5.20;99.90;;;;;;5053783;28;19933;-52
2022/01/18 15:26:50;;;;;;;;;;;5.10;99.90;;;;;;5053691;28;19970;-52
2022/01/18 15:29:16;;;;;;;;;;;5.10;99.90;;;;;;5053469;28;19925;-52
2022/01/18 15:31:43;;;;;;;;;;;4.90;99.90;;;;;;5053745;28;20440;-52